• Join FlightAware (Why Join?)
  • Login
  • US Flag 
03:00AM EDT


 

Airport Tracker/Info


-or-


 

Live Flight TrackerFlight Track Log ✈ SWA641 ✈ 15-Apr-2013 ✈ KMSP - KSTL

Flight Track Log - Related Links

Times and Time Zones

All times are in EDT time to prevent confusion due to time zone crossing. See the SWA641 flight status page for this flight to view local times or setup timezone preferences in your user account.

Time Position Orientation Groundspeed Altitude Reporting Facility
EDT Latitude Longitude Course Direction KTS MPH feet Rate Location/Type
10:42AM 44.8364 -93.2258 159° South 171 197 3,000  Level FAA TRACON SMA TRACON (SMA)
10:43AM 44.8197 -93.2186 163° South 194 223 3,800 3,120 Climbing FAA TRACON SMA TRACON (SMA)
10:43AM 44.7978 -93.2092 163° South 213 245 5,100 3,600 Climbing FAA TRACON SMA TRACON (SMA)
10:43AM 44.7806 -93.2014 162° South 215 247 6,200 2,820 Climbing FAA TRACON SMA TRACON (SMA)
10:44AM 44.7622 -93.1928 162° South 221 254 7,000 2,520 Climbing FAA TRACON SMA TRACON (SMA)
10:44AM 44.7356 -93.1786 159° South 257 296 7,900 3,900 Climbing FAA TRACON SMA TRACON (SMA)
10:44AM 44.7136 -93.1661 158° South 277 319 9,600 4,500 Climbing FAA TRACON SMA TRACON (SMA)
10:45AM 44.6917 -93.1539 158° South 275 316 10,900 3,360 Climbing FAA TRACON SMA TRACON (SMA)
10:45AM 44.6686 -93.1414 159° South 284 327 11,800 3,180 Climbing FAA TRACON SMA TRACON (SMA)
10:45AM 44.6372 -93.1247 159° South 307 353 13,000 3,120 Climbing FAA TRACON SMA TRACON (SMA)
10:46AM 44.6108 -93.1103 159° South 325 374 13,900 2,700 Climbing FAA TRACON SMA TRACON (SMA)
10:46AM 44.5831 -93.0956 159° South 342 394 14,800 3,000 Climbing FAA TRACON SMA TRACON (SMA)
10:46AM 44.5467 -93.0756 159° South 362 417 15,900 3,300 Climbing FAA TRACON SMA TRACON (SMA)
10:47AM 44.5164 -93.0594 159° South 375 432 17,000 3,600 Climbing FAA TRACON SMA TRACON (SMA)
10:47AM 44.4858 -93.0425 158° South 382 440 18,300 3,900 Climbing FAA TRACON SMA TRACON (SMA)
10:47AM 44.4469 -93.0214 159° South 389 448 19,600 3,420 Climbing FAA TRACON SMA TRACON (SMA)
10:48AM 44.4153 -93.0039 158° South 396 456 20,600 2,820 Climbing FAA TRACON SMA TRACON (SMA)
10:48AM 44.3831 -92.9864 159° South 400 460 21,500 3,060 Climbing FAA TRACON SMA TRACON (SMA)
10:48AM 44.3422 -92.9656 160° South 406 467 22,700 3,060 Climbing FAA TRACON SMA TRACON (SMA)
10:49AM 44.3094 -92.9467 158° South 412 474 23,600 2,700 Climbing FAA TRACON SMA TRACON (SMA)
10:49AM 44.2758 -92.9292 160° South 415 478 24,500 3,000 Climbing FAA TRACON SMA TRACON (SMA)
10:49AM 44.2344 -92.9028 155° Southeast 424 488 25,600 3,120 Climbing FAA TRACON SMA TRACON (SMA)
10:50AM 44.2014 -92.8794 153° Southeast 431 496 26,600 2,820 Climbing FAA TRACON SMA TRACON (SMA)
10:50AM 44.1686 -92.8558 153° Southeast 432 497 27,500 2,820 Climbing FAA TRACON SMA TRACON (SMA)
10:50AM 44.1272 -92.8269 153° Southeast 432 497 28,500 2,400 Climbing FAA TRACON SMA TRACON (SMA)
10:51AM 44.0933 -92.8053 155° Southeast 435 501 29,100 1,920 Climbing FAA TRACON SMA TRACON (SMA)
10:51AM 44.0603 -92.7794 151° Southeast 439 505 29,800 2,220 Climbing FAA TRACON SMA TRACON (SMA)
10:51AM 44.0169 -92.7519 155° Southeast 442 509 30,600 2,400 Climbing FAA TRACON SMA TRACON (SMA)
10:52AM 43.9833 -92.7272 152° Southeast 444 511 31,400 1,680 Climbing FAA TRACON SMA TRACON (SMA)
10:52AM 43.9664 -92.7153 153° Southeast 444 511 31,700 1,680 Climbing FAA TRACON SMA TRACON (SMA)
10:53AM 43.8742 -92.6606 157° South 446 513 33,400 1,920 Climbing Minneapolis Center
10:54AM 43.7417 -92.5922 160° South 445 512 35,300 2,100 Climbing Minneapolis Center
10:55AM 43.6303 -92.5722 173° South 414 476 37,800 1,620 Climbing Minneapolis Center
10:56AM 43.5200 -92.5544 173° South 405 466 38,700 900 Climbing Minneapolis Center
10:57AM 43.4061 -92.5350 173° South 414 476 39,700 900 Climbing Minneapolis Center
10:58AM 43.2897 -92.5172 174° South 424 488 40,600 600 Climbing Minneapolis Center
10:59AM 43.1469 -92.4958 174° South 434 499 41,000 180 Climbing Minneapolis Center
11:00AM 43.0269 -92.4758 173° South 437 503 41,000  Level Minneapolis Center
11:01AM 42.9083 -92.4553 173° South 437 503 41,000  Level Minneapolis Center
11:02AM 42.7894 -92.4378 174° South 436 502 41,000  Level Minneapolis Center
11:03AM 42.6458 -92.4139 173° South 438 504 41,000  Level Minneapolis Center
11:04AM 42.5269 -92.3942 173° South 437 503 41,000  Level Minneapolis Center
11:05AM 42.4083 -92.3661 170° South 438 504 41,000  Level Minneapolis Center
11:06AM 42.2892 -92.3381 170° South 439 505 41,000  Level Minneapolis Center
11:07AM 42.1700 -92.3111 170° South 439 505 41,000  Level Minneapolis Center
11:08AM 42.0275 -92.2789 170° South 438 504 41,000  Level Minneapolis Center
11:09AM 41.9094 -92.2517 170° South 435 501 41,000 -540 Level Minneapolis Center
11:10AM 41.7939 -92.2267 171° South 428 493 40,000 -1,080 Descending Minneapolis Center
11:11AM 41.6711 -92.1969 170° South 420 483 38,900 -1,080 Descending Minneapolis Center
11:12AM 41.5569 -92.1722 171° South 419 482 37,900 -1,020 Descending Minneapolis Center
11:13AM 41.4464 -92.1494 171° South 410 472 36,900 -1,020 Descending Minneapolis Center
11:14AM 41.2997 -92.1147 170° South 412 474 35,700 -960 Descending Chicago Center
11:16AM 41.1953 -92.0908 170° South 424 488 34,800 -900 Descending Chicago Center
11:17AM 41.0764 -92.0653 171° South 433 498 33,900 -1,680 Descending Chicago Center
11:18AM 40.9339 -92.0333 170° South 433 498 31,400 -1,680 Descending Chicago Center
11:19AM 40.8186 -91.9728 158° South 454 522 30,500 -960 Descending Chicago Center
11:20AM 40.7053 -91.8892 151° Southeast 465 535 29,500 -780 Descending Chicago Center
11:21AM 40.6139 -91.8231 151° Southeast 466 536 29,000 -300 Descending Kansas City Center
11:22AM 40.5028 -91.7414 151° Southeast 462 532 29,000  Level Kansas City Center
11:23AM 40.3711 -91.6461 151° Southeast 455 524 29,000  Level Kansas City Center
11:24AM 40.2619 -91.5675 151° Southeast 451 519 29,000  Level Kansas City Center
11:25AM 40.1536 -91.4903 151° Southeast 448 516 29,000  Level Kansas City Center
11:26AM 40.0439 -91.4117 151° Southeast 450 518 29,000 -900 Level Kansas City Center
11:27AM 39.9361 -91.3347 151° Southeast 446 513 27,200 -2,400 Descending Kansas City Center
11:28AM 39.8108 -91.2458 151° Southeast 434 499 24,100 -2,340 Descending Kansas City Center
11:29AM 39.7236 -91.1792 150° Southeast 409 471 22,400 -1,980 Descending Kansas City Center
11:30AM 39.6319 -91.1047 148° Southeast 395 455 20,100 -2,280 Descending Kansas City Center
11:31AM 39.5428 -91.0300 147° Southeast 385 443 17,800 -2,340 Descending Kansas City Center
11:32AM 39.4386 -90.9464 148° Southeast 371 427 15,300 -2,460 Descending Kansas City Center
11:32AM 39.4144 -90.8689 112° Southeast 365 420 14,700 -2,460 Descending FAA TRACON SMA TRACON (SMA)
11:33AM 39.3842 -90.8361 140° Southeast 367 422 13,800 -2,280 Descending FAA TRACON SMA TRACON (SMA)
11:33AM 39.3639 -90.8042 129° Southeast 375 432 13,200 -2,040 Descending FAA TRACON SMA TRACON (SMA)
11:33AM 39.3406 -90.7617 125° Southeast 376 433 12,500 -1,800 Descending FAA TRACON SMA TRACON (SMA)
11:34AM 39.3219 -90.7294 127° Southeast 372 428 12,000 -1,500 Descending FAA TRACON SMA TRACON (SMA)
11:34AM 39.2978 -90.7078 145° Southeast 356 410 11,500 -1,740 Descending FAA TRACON SMA TRACON (SMA)
11:34AM 39.2642 -90.7050 176° South 325 374 10,900 -1,200 Descending FAA TRACON SMA TRACON (SMA)
11:35AM 39.2381 -90.7033 177° South 312 359 10,700 -600 Descending FAA TRACON SMA TRACON (SMA)
11:35AM 39.2136 -90.6953 166° South 299 344 10,500 -780 Descending FAA TRACON SMA TRACON (SMA)
11:35AM 39.1858 -90.6767 153° Southeast 293 337 10,200 -1,140 Descending FAA TRACON SMA TRACON (SMA)
11:36AM 39.1439 -90.6447 149° Southeast 284 327 9,400 -1,320 Descending FAA TRACON SMA TRACON (SMA)
11:36AM 39.1183 -90.6253 149° Southeast 279 321 8,900 -1,320 Descending FAA TRACON SMA TRACON (SMA)
11:37AM 39.0978 -90.6097 150° Southeast 276 318 8,500 -1,200 Descending FAA TRACON SMA TRACON (SMA)
11:37AM 39.0781 -90.5944 149° Southeast 270 311 8,100 -1,260 Descending FAA TRACON SMA TRACON (SMA)
11:37AM 39.0544 -90.5764 149° Southeast 260 299 7,700 -1,200 Descending FAA TRACON SMA TRACON (SMA)
11:38AM 39.0364 -90.5631 150° Southeast 248 285 7,300 -1,500 Descending FAA TRACON SMA TRACON (SMA)
11:38AM 39.0189 -90.5497 149° Southeast 238 274 6,700 -2,100 Descending FAA TRACON SMA TRACON (SMA)
11:38AM 39.0006 -90.5378 153° Southeast 237 273 5,900 -2,520 Descending FAA TRACON SMA TRACON (SMA)
11:39AM 38.9758 -90.5358 177° South 237 273 5,000 -2,400 Descending FAA TRACON SMA TRACON (SMA)
11:39AM 38.9556 -90.5358 180° South 235 270 4,300 -1,740 Descending FAA TRACON SMA TRACON (SMA)
11:39AM 38.9297 -90.5361 180° South 238 274 3,900 -600 Descending FAA TRACON SMA TRACON (SMA)
11:40AM 38.9097 -90.5361 180° South 237 273 3,900 120 Level FAA TRACON SMA TRACON (SMA)
11:40AM 38.8892 -90.5342 176° South 242 278 4,000 -180 Climbing FAA TRACON SMA TRACON (SMA)
11:40AM 38.8678 -90.5169 148° Southeast 240 276 3,800 -780 Descending FAA TRACON SMA TRACON (SMA)
11:41AM 38.8544 -90.4983 133° Southeast 233 268 3,500 -900 Descending FAA TRACON SMA TRACON (SMA)
11:41AM 38.8414 -90.4803 133° Southeast 226 260 3,200 -1,080 Descending FAA TRACON SMA TRACON (SMA)
11:41AM 38.8256 -90.4586 133° Southeast 217 250 2,800 -900 Descending FAA TRACON SMA TRACON (SMA)
11:42AM 38.8133 -90.4425 134° Southeast 208 239 2,600 -600 Descending FAA TRACON SMA TRACON (SMA)
11:42AM 38.8022 -90.4269 133° Southeast 195 224 2,400 -780 Descending FAA TRACON SMA TRACON (SMA)
11:42AM 38.7903 -90.4086 130° Southeast 179 206 2,100 -900 Descending FAA TRACON SMA TRACON (SMA)
11:43AM 38.7833 -90.3939 121° Southeast 162 186 1,800 -780 Descending FAA TRACON SMA TRACON (SMA)
11:43AM 38.7769 -90.3806 122° Southeast 145 167 1,600 -600 Descending FAA TRACON SMA TRACON (SMA)
11:43AM 38.7697 -90.3661 123° Southeast 127 146 1,400 -780 Descending FAA TRACON SMA TRACON (SMA)
11:44AM 38.7639 -90.3544 123° Southeast 124 143 1,100 -780 Descending FAA TRACON SMA TRACON (SMA)
11:44AM 38.7583 -90.3433 123° Southeast 123 142 900 -660 Descending FAA TRACON SMA TRACON (SMA)
11:44AM 38.7525 -90.3317 123° Southeast 126 145 700 -480 Descending FAA TRACON SMA TRACON (SMA)
11:45AM 38.7381 -90.3111 132° Southeast 182 209 600 -120 Descending FAA TRACON SMA TRACON (SMA)
11:45AM 38.7381 -90.3111 191° South 182 209 600  Level FAA TRACON SMA TRACON (SMA)